sensor_id;sensor_type;location;lat;lon;timestamp;temperature;humidity
11944;DHT22;6031;50.220;10.122;2023-04-15T00:02:21;4.40;99.90
11944;DHT22;6031;50.220;10.122;2023-04-15T00:04:47;4.40;99.90
11944;DHT22;6031;50.220;10.122;2023-04-15T00:07:13;4.30;99.90
11944;DHT22;6031;50.220;10.122;2023-04-15T00:09:40;4.30;99.90
11944;DHT22;6031;50.220;10.122;2023-04-15T00:12:05;4.30;1.00
11944;DHT22;6031;50.220;10.122;2023-04-15T00:14:33;4.40;1.00
11944;DHT22;6031;50.220;10.122;2023-04-15T00:16:59;4.40;1.00
11944;DHT22;6031;50.220;10.122;2023-04-15T00:19:25;4.50;99.70
11944;DHT22;6031;50.220;10.122;2023-04-15T00:21:51;4.50;1.00
11944;DHT22;6031;50.220;10.122;2023-04-15T00:24:16;4.40;74.10
11944;DHT22;6031;50.220;10.122;2023-04-15T00:26:42;4.40;99.90
11944;DHT22;6031;50.220;10.122;2023-04-15T00:29:07;4.40;99.90
11944;DHT22;6031;50.220;10.122;2023-04-15T00:31:33;4.30;99.90
11944;DHT22;6031;50.220;10.122;2023-04-15T00:33:59;4.20;99.90
11944;DHT22;6031;50.220;10.122;2023-04-15T00:36:24;4.30;99.90
11944;DHT22;6031;50.220;10.122;2023-04-15T00:38:50;4.10;99.90
11944;DHT22;6031;50.220;10.122;2023-04-15T00:41:17;4.10;1.00
11944;DHT22;6031;50.220;10.122;2023-04-15T00:43:43;4.20;1.00
11944;DHT22;6031;50.220;10.122;2023-04-15T00:46:09;4.20;1.00
11944;DHT22;6031;50.220;10.122;2023-04-15T00:48:37;4.40;1.00
11944;DHT22;6031;50.220;10.122;2023-04-15T00:51:03;4.40;1.00
11944;DHT22;6031;50.220;10.122;2023-04-15T00:53:29;4.40;1.00
11944;DHT22;6031;50.220;10.122;2023-04-15T00:55:55;4.50;1.00
11944;DHT22;6031;50.220;10.122;2023-04-15T00:58:20;4.30;1.00
11944;DHT22;6031;50.220;10.122;2023-04-15T01:00:46;4.20;1.00
11944;DHT22;6031;50.220;10.122;2023-04-15T01:03:12;4.20;1.00
11944;DHT22;6031;50.220;10.122;2023-04-15T01:05:38;4.10;1.00
11944;DHT22;6031;50.220;10.122;2023-04-15T01:08:04;4.00;1.00
11944;DHT22;6031;50.220;10.122;2023-04-15T01:10:30;4.00;1.00
11944;DHT22;6031;50.220;10.122;2023-04-15T01:12:56;4.00;1.00
11944;DHT22;6031;50.220;10.122;2023-04-15T01:15:22;4.00;1.00
11944;DHT22;6031;50.220;10.122;2023-04-15T01:17:48;4.00;1.00
11944;DHT22;6031;50.220;10.122;2023-04-15T01:20:14;4.00;1.00
11944;DHT22;6031;50.220;10.122;2023-04-15T01:22:40;4.10;1.00
11944;DHT22;6031;50.220;10.122;2023-04-15T01:25:10;4.10;1.00
11944;DHT22;6031;50.220;10.122;2023-04-15T01:27:38;3.90;1.00
11944;DHT22;6031;50.220;10.122;2023-04-15T01:30:06;3.80;1.00
11944;DHT22;6031;50.220;10.122;2023-04-15T01:32:32;4.00;1.00
11944;DHT22;6031;50.220;10.122;2023-04-15T01:34:57;3.90;1.00
11944;DHT22;6031;50.220;10.122;2023-04-15T01:37:23;3.80;1.00
11944;DHT22;6031;50.220;10.122;2023-04-15T01:39:49;3.80;1.00
11944;DHT22;6031;50.220;10.122;2023-04-15T01:42:14;3.80;1.00
11944;DHT22;6031;50.220;10.122;2023-04-15T01:44:40;3.90;1.00
11944;DHT22;6031;50.220;10.122;2023-04-15T01:47:06;4.10;1.00
11944;DHT22;6031;50.220;10.122;2023-04-15T01:49:31;4.20;1.00
11944;DHT22;6031;50.220;10.122;2023-04-15T01:51:57;4.10;1.00
11944;DHT22;6031;50.220;10.122;2023-04-15T01:54:22;4.00;1.00
11944;DHT22;6031;50.220;10.122;2023-04-15T01:56:48;4.00;1.00
11944;DHT22;6031;50.220;10.122;2023-04-15T01:59:13;4.00;1.00
11944;DHT22;6031;50.220;10.122;2023-04-15T02:01:39;3.90;1.00
11944;DHT22;6031;50.220;10.122;2023-04-15T02:04:05;3.90;1.00
11944;DHT22;6031;50.220;10.122;2023-04-15T02:06:31;3.80;1.00
11944;DHT22;6031;50.220;10.122;2023-04-15T02:08:57;3.90;1.00
11944;DHT22;6031;50.220;10.122;2023-04-15T02:11:23;3.80;14.20
11944;DHT22;6031;50.220;10.122;2023-04-15T02:13:49;3.80;40.10
11944;DHT22;6031;50.220;10.122;2023-04-15T02:16:18;4.00;18.10
11944;DHT22;6031;50.220;10.122;2023-04-15T02:18:44;4.10;1.00
11944;DHT22;6031;50.220;10.122;2023-04-15T02:21:10;4.10;1.00
11944;DHT22;6031;50.220;10.122;2023-04-15T02:23:36;4.10;1.00
11944;DHT22;6031;50.220;10.122;2023-04-15T02:26:01;4.20;1.00
11944;DHT22;6031;50.220;10.122;2023-04-15T02:28:27;4.20;1.00
11944;DHT22;6031;50.220;10.122;2023-04-15T02:30:52;4.10;1.00
11944;DHT22;6031;50.220;10.122;2023-04-15T02:33:20;4.10;39.80
11944;DHT22;6031;50.220;10.122;2023-04-15T02:35:46;4.10;70.10
11944;DHT22;6031;50.220;10.122;2023-04-15T02:38:12;4.10;99.90
11944;DHT22;6031;50.220;10.122;2023-04-15T02:40:38;4.10;95.50
11944;DHT22;6031;50.220;10.122;2023-04-15T02:43:04;4.10;1.00
11944;DHT22;6031;50.220;10.122;2023-04-15T02:45:31;4.10;1.00
11944;DHT22;6031;50.220;10.122;2023-04-15T02:47:57;4.10;1.00
11944;DHT22;6031;50.220;10.122;2023-04-15T02:50:23;4.10;6.20
11944;DHT22;6031;50.220;10.122;2023-04-15T02:52:49;4.10;1.00
11944;DHT22;6031;50.220;10.122;2023-04-15T02:55:15;4.10;1.00
11944;DHT22;6031;50.220;10.122;2023-04-15T02:57:42;4.10;1.00
11944;DHT22;6031;50.220;10.122;2023-04-15T03:00:08;4.20;1.00
11944;DHT22;6031;50.220;10.122;2023-04-15T03:02:37;4.20;1.00
11944;DHT22;6031;50.220;10.122;2023-04-15T03:05:03;4.10;1.00
11944;DHT22;6031;50.220;10.122;2023-04-15T03:07:30;4.00;1.00
11944;DHT22;6031;50.220;10.122;2023-04-15T03:09:56;4.00;1.00
11944;DHT22;6031;50.220;10.122;2023-04-15T03:12:21;4.00;1.00
11944;DHT22;6031;50.220;10.122;2023-04-15T03:14:47;3.90;1.00
11944;DHT22;6031;50.220;10.122;2023-04-15T03:17:12;3.80;1.00
11944;DHT22;6031;50.220;10.122;2023-04-15T03:19:38;3.80;1.00
11944;DHT22;6031;50.220;10.122;2023-04-15T03:22:03;3.70;38.50
11944;DHT22;6031;50.220;10.122;2023-04-15T03:24:29;3.70;81.10
11944;DHT22;6031;50.220;10.122;2023-04-15T03:26:55;3.70;99.90
11944;DHT22;6031;50.220;10.122;2023-04-15T03:29:22;3.70;57.00
11944;DHT22;6031;50.220;10.122;2023-04-15T03:31:47;3.70;32.70
11944;DHT22;6031;50.220;10.122;2023-04-15T03:34:13;3.80;99.90
11944;DHT22;6031;50.220;10.122;2023-04-15T03:36:39;3.90;99.90
11944;DHT22;6031;50.220;10.122;2023-04-15T03:39:04;3.90;99.90
11944;DHT22;6031;50.220;10.122;2023-04-15T03:41:30;3.90;99.90
11944;DHT22;6031;50.220;10.122;2023-04-15T03:43:57;3.80;99.90
11944;DHT22;6031;50.220;10.122;2023-04-15T03:46:22;3.80;99.90
11944;DHT22;6031;50.220;10.122;2023-04-15T03:48:48;3.80;99.90
11944;DHT22;6031;50.220;10.122;2023-04-15T03:51:13;3.90;99.90
11944;DHT22;6031;50.220;10.122;2023-04-15T03:53:39;3.80;99.90
11944;DHT22;6031;50.220;10.122;2023-04-15T03:56:05;3.80;99.90
11944;DHT22;6031;50.220;10.122;2023-04-15T03:58:31;3.80;99.90
11944;DHT22;6031;50.220;10.122;2023-04-15T04:00:56;3.80;99.90
11944;DHT22;6031;50.220;10.122;2023-04-15T04:03:22;3.80;99.90
11944;DHT22;6031;50.220;10.122;2023-04-15T04:05:48;4.00;99.90
11944;DHT22;6031;50.220;10.122;2023-04-15T04:08:13;4.00;99.90
11944;DHT22;6031;50.220;10.122;2023-04-15T04:10:40;4.10;99.90
11944;DHT22;6031;50.220;10.122;2023-04-15T04:13:06;4.00;99.90
11944;DHT22;6031;50.220;10.122;2023-04-15T04:15:32;4.00;99.90
11944;DHT22;6031;50.220;10.122;2023-04-15T04:17:57;4.00;99.90
11944;DHT22;6031;50.220;10.122;2023-04-15T04:20:23;4.10;99.90
11944;DHT22;6031;50.220;10.122;2023-04-15T04:22:48;4.00;99.90
11944;DHT22;6031;50.220;10.122;2023-04-15T04:25:14;4.00;99.90
11944;DHT22;6031;50.220;10.122;2023-04-15T04:27:40;4.00;99.90
11944;DHT22;6031;50.220;10.122;2023-04-15T04:30:06;4.00;99.90
11944;DHT22;6031;50.220;10.122;2023-04-15T04:32:32;4.00;99.90
11944;DHT22;6031;50.220;10.122;2023-04-15T04:34:57;4.00;99.90
11944;DHT22;6031;50.220;10.122;2023-04-15T04:37:23;4.00;99.90
11944;DHT22;6031;50.220;10.122;2023-04-15T04:39:49;4.00;99.90
11944;DHT22;6031;50.220;10.122;2023-04-15T04:42:15;4.10;99.90
11944;DHT22;6031;50.220;10.122;2023-04-15T04:44:40;4.10;99.90
11944;DHT22;6031;50.220;10.122;2023-04-15T04:47:06;4.10;99.90
11944;DHT22;6031;50.220;10.122;2023-04-15T04:49:32;4.10;99.90
11944;DHT22;6031;50.220;10.122;2023-04-15T04:51:58;4.10;99.90
11944;DHT22;6031;50.220;10.122;2023-04-15T04:54:24;4.10;99.90
11944;DHT22;6031;50.220;10.122;2023-04-15T04:56:49;4.20;99.90
11944;DHT22;6031;50.220;10.122;2023-04-15T04:59:15;4.20;99.90
11944;DHT22;6031;50.220;10.122;2023-04-15T05:01:41;4.30;99.90
11944;DHT22;6031;50.220;10.122;2023-04-15T05:04:07;4.40;99.90
11944;DHT22;6031;50.220;10.122;2023-04-15T05:06:32;4.50;99.90
11944;DHT22;6031;50.220;10.122;2023-04-15T05:08:58;4.60;99.90
11944;DHT22;6031;50.220;10.122;2023-04-15T05:11:23;4.60;1.00
11944;DHT22;6031;50.220;10.122;2023-04-15T05:13:49;4.60;1.00
11944;DHT22;6031;50.220;10.122;2023-04-15T05:16:14;4.70;11.50
11944;DHT22;6031;50.220;10.122;2023-04-15T05:18:40;4.70;20.90
11944;DHT22;6031;50.220;10.122;2023-04-15T05:21:05;4.80;17.50
11944;DHT22;6031;50.220;10.122;2023-04-15T05:23:32;4.90;1.00
11944;DHT22;6031;50.220;10.122;2023-04-15T05:25:57;5.00;1.00
11944;DHT22;6031;50.220;10.122;2023-04-15T05:28:23;5.00;1.00
11944;DHT22;6031;50.220;10.122;2023-04-15T05:30:49;5.10;1.00
11944;DHT22;6031;50.220;10.122;2023-04-15T05:33:14;5.20;1.00
11944;DHT22;6031;50.220;10.122;2023-04-15T05:35:40;5.30;1.00
11944;DHT22;6031;50.220;10.122;2023-04-15T05:38:06;5.40;1.00
11944;DHT22;6031;50.220;10.122;2023-04-15T05:40:31;5.40;1.00
11944;DHT22;6031;50.220;10.122;2023-04-15T05:42:57;5.60;1.00
11944;DHT22;6031;50.220;10.122;2023-04-15T05:45:22;5.60;99.90
11944;DHT22;6031;50.220;10.122;2023-04-15T05:47:48;5.80;1.00
11944;DHT22;6031;50.220;10.122;2023-04-15T05:50:18;5.90;1.00
11944;DHT22;6031;50.220;10.122;2023-04-15T05:52:44;6.00;1.00
11944;DHT22;6031;50.220;10.122;2023-04-15T05:55:10;6.10;99.90
11944;DHT22;6031;50.220;10.122;2023-04-15T05:57:36;6.20;1.00
11944;DHT22;6031;50.220;10.122;2023-04-15T06:00:03;6.30;99.90
11944;DHT22;6031;50.220;10.122;2023-04-15T06:02:29;6.30;99.90
11944;DHT22;6031;50.220;10.122;2023-04-15T06:04:56;6.30;99.90
11944;DHT22;6031;50.220;10.122;2023-04-15T06:07:22;6.40;1.00
11944;DHT22;6031;50.220;10.122;2023-04-15T06:09:47;6.30;99.90
11944;DHT22;6031;50.220;10.122;2023-04-15T06:12:14;6.30;1.00
11944;DHT22;6031;50.220;10.122;2023-04-15T06:14:39;6.40;1.00
11944;DHT22;6031;50.220;10.122;2023-04-15T06:17:05;6.50;1.00
11944;DHT22;6031;50.220;10.122;2023-04-15T06:19:31;6.60;1.00
11944;DHT22;6031;50.220;10.122;2023-04-15T06:21:57;6.70;99.90
11944;DHT22;6031;50.220;10.122;2023-04-15T06:24:23;6.70;1.00
11944;DHT22;6031;50.220;10.122;2023-04-15T06:26:48;6.70;1.00
11944;DHT22;6031;50.220;10.122;2023-04-15T06:29:14;6.70;1.00
11944;DHT22;6031;50.220;10.122;2023-04-15T06:31:39;6.70;1.00
11944;DHT22;6031;50.220;10.122;2023-04-15T06:34:05;6.70;48.60
11944;DHT22;6031;50.220;10.122;2023-04-15T06:36:30;6.70;1.00
11944;DHT22;6031;50.220;10.122;2023-04-15T06:38:56;6.60;1.00
11944;DHT22;6031;50.220;10.122;2023-04-15T06:41:22;6.60;1.00
11944;DHT22;6031;50.220;10.122;2023-04-15T06:43:48;6.70;1.00
11944;DHT22;6031;50.220;10.122;2023-04-15T06:46:13;6.70;99.90
11944;DHT22;6031;50.220;10.122;2023-04-15T06:48:39;6.70;99.90
11944;DHT22;6031;50.220;10.122;2023-04-15T06:51:04;6.70;1.00
11944;DHT22;6031;50.220;10.122;2023-04-15T06:53:30;6.70;1.00
11944;DHT22;6031;50.220;10.122;2023-04-15T06:55:56;6.80;1.00
11944;DHT22;6031;50.220;10.122;2023-04-15T06:58:21;6.80;1.00
11944;DHT22;6031;50.220;10.122;2023-04-15T07:00:47;7.00;99.90
11944;DHT22;6031;50.220;10.122;2023-04-15T07:03:13;7.10;1.00
11944;DHT22;6031;50.220;10.122;2023-04-15T07:05:39;7.20;99.90
11944;DHT22;6031;50.220;10.122;2023-04-15T07:08:05;7.20;99.90
11944;DHT22;6031;50.220;10.122;2023-04-15T07:10:32;7.20;99.90
11944;DHT22;6031;50.220;10.122;2023-04-15T07:12:58;7.30;99.90
11944;DHT22;6031;50.220;10.122;2023-04-15T07:15:23;7.40;1.00
11944;DHT22;6031;50.220;10.122;2023-04-15T07:17:49;7.40;1.00
11944;DHT22;6031;50.220;10.122;2023-04-15T07:20:15;7.40;1.00
11944;DHT22;6031;50.220;10.122;2023-04-15T07:22:40;7.40;1.00
11944;DHT22;6031;50.220;10.122;2023-04-15T07:25:06;7.50;1.00
11944;DHT22;6031;50.220;10.122;2023-04-15T07:27:32;7.50;1.00
11944;DHT22;6031;50.220;10.122;2023-04-15T07:29:57;7.60;1.00
11944;DHT22;6031;50.220;10.122;2023-04-15T07:32:23;7.70;1.00
11944;DHT22;6031;50.220;10.122;2023-04-15T07:34:48;7.80;1.00
11944;DHT22;6031;50.220;10.122;2023-04-15T07:37:14;7.90;1.00
11944;DHT22;6031;50.220;10.122;2023-04-15T07:39:40;7.90;99.90
11944;DHT22;6031;50.220;10.122;2023-04-15T07:42:05;8.00;1.00
11944;DHT22;6031;50.220;10.122;2023-04-15T07:44:31;8.00;1.00
11944;DHT22;6031;50.220;10.122;2023-04-15T07:46:56;8.00;1.00
11944;DHT22;6031;50.220;10.122;2023-04-15T07:49:22;8.10;1.00
11944;DHT22;6031;50.220;10.122;2023-04-15T07:51:48;8.00;99.90
11944;DHT22;6031;50.220;10.122;2023-04-15T07:54:14;8.10;1.00
11944;DHT22;6031;50.220;10.122;2023-04-15T07:56:40;8.30;99.90
11944;DHT22;6031;50.220;10.122;2023-04-15T07:59:05;8.40;1.00
11944;DHT22;6031;50.220;10.122;2023-04-15T08:01:31;8.40;1.00
11944;DHT22;6031;50.220;10.122;2023-04-15T08:03:58;8.40;1.00
11944;DHT22;6031;50.220;10.122;2023-04-15T08:06:23;8.40;1.00
11944;DHT22;6031;50.220;10.122;2023-04-15T08:08:49;8.50;1.00
11944;DHT22;6031;50.220;10.122;2023-04-15T08:11:15;8.40;99.90
11944;DHT22;6031;50.220;10.122;2023-04-15T08:13:41;8.40;1.00
11944;DHT22;6031;50.220;10.122;2023-04-15T08:16:18;8.30;1.00
11944;DHT22;6031;50.220;10.122;2023-04-15T08:18:44;8.30;1.00
11944;DHT22;6031;50.220;10.122;2023-04-15T08:21:10;8.20;1.00
11944;DHT22;6031;50.220;10.122;2023-04-15T08:23:36;8.20;93.80
11944;DHT22;6031;50.220;10.122;2023-04-15T08:26:02;8.40;1.00
11944;DHT22;6031;50.220;10.122;2023-04-15T08:28:28;8.40;1.00
11944;DHT22;6031;50.220;10.122;2023-04-15T08:30:53;8.40;1.00
11944;DHT22;6031;50.220;10.122;2023-04-15T08:33:19;8.40;99.90
11944;DHT22;6031;50.220;10.122;2023-04-15T08:35:45;8.30;1.00
11944;DHT22;6031;50.220;10.122;2023-04-15T08:38:11;8.40;1.00
11944;DHT22;6031;50.220;10.122;2023-04-15T08:40:41;8.40;1.00
11944;DHT22;6031;50.220;10.122;2023-04-15T08:43:12;8.40;1.00
11944;DHT22;6031;50.220;10.122;2023-04-15T08:45:40;8.40;99.90
11944;DHT22;6031;50.220;10.122;2023-04-15T08:48:07;8.30;1.00
11944;DHT22;6031;50.220;10.122;2023-04-15T08:50:34;8.40;1.00
11944;DHT22;6031;50.220;10.122;2023-04-15T08:52:59;8.60;1.00
11944;DHT22;6031;50.220;10.122;2023-04-15T08:55:28;8.70;99.90
11944;DHT22;6031;50.220;10.122;2023-04-15T08:57:55;8.80;1.00
11944;DHT22;6031;50.220;10.122;2023-04-15T09:00:21;8.70;1.00
11944;DHT22;6031;50.220;10.122;2023-04-15T09:02:47;8.80;61.80
11944;DHT22;6031;50.220;10.122;2023-04-15T09:05:13;8.90;1.00
11944;DHT22;6031;50.220;10.122;2023-04-15T09:07:38;9.00;62.50
11944;DHT22;6031;50.220;10.122;2023-04-15T09:10:04;9.20;1.00
11944;DHT22;6031;50.220;10.122;2023-04-15T09:12:34;9.30;99.90
11944;DHT22;6031;50.220;10.122;2023-04-15T09:15:00;9.40;99.90
11944;DHT22;6031;50.220;10.122;2023-04-15T09:17:26;9.30;1.00
11944;DHT22;6031;50.220;10.122;2023-04-15T09:20:08;9.30;6.20
11944;DHT22;6031;50.220;10.122;2023-04-15T09:22:35;9.20;99.90
11944;DHT22;6031;50.220;10.122;2023-04-15T09:25:01;9.00;99.90
11944;DHT22;6031;50.220;10.122;2023-04-15T09:27:28;9.00;1.00
11944;DHT22;6031;50.220;10.122;2023-04-15T09:29:53;9.10;99.90
11944;DHT22;6031;50.220;10.122;2023-04-15T09:32:19;9.00;1.00
11944;DHT22;6031;50.220;10.122;2023-04-15T09:34:47;8.70;99.90
11944;DHT22;6031;50.220;10.122;2023-04-15T09:37:13;8.70;99.90
11944;DHT22;6031;50.220;10.122;2023-04-15T09:39:50;8.60;10.50
11944;DHT22;6031;50.220;10.122;2023-04-15T09:42:16;8.60;99.90
11944;DHT22;6031;50.220;10.122;2023-04-15T09:44:49;8.50;1.00
11944;DHT22;6031;50.220;10.122;2023-04-15T09:47:30;8.30;1.00
11944;DHT22;6031;50.220;10.122;2023-04-15T09:49:57;8.40;99.90
11944;DHT22;6031;50.220;10.122;2023-04-15T09:52:23;8.40;1.00
11944;DHT22;6031;50.220;10.122;2023-04-15T09:54:52;8.50;1.00
11944;DHT22;6031;50.220;10.122;2023-04-15T09:57:19;8.60;1.00
11944;DHT22;6031;50.220;10.122;2023-04-15T09:59:46;8.60;1.00
11944;DHT22;6031;50.220;10.122;2023-04-15T10:02:12;8.60;1.00
11944;DHT22;6031;50.220;10.122;2023-04-15T10:04:39;8.70;1.00
11944;DHT22;6031;50.220;10.122;2023-04-15T10:07:11;8.70;87.00
11944;DHT22;6031;50.220;10.122;2023-04-15T10:09:38;8.70;1.00
11944;DHT22;6031;50.220;10.122;2023-04-15T10:12:04;8.70;79.50
11944;DHT22;6031;50.220;10.122;2023-04-15T10:14:34;8.60;31.20
11944;DHT22;6031;50.220;10.122;2023-04-15T10:17:04;8.70;1.00
11944;DHT22;6031;50.220;10.122;2023-04-15T10:19:30;8.80;1.00
11944;DHT22;6031;50.220;10.122;2023-04-15T10:21:58;8.90;1.00
11944;DHT22;6031;50.220;10.122;2023-04-15T10:24:24;8.90;1.00
11944;DHT22;6031;50.220;10.122;2023-04-15T10:26:50;8.90;1.00
11944;DHT22;6031;50.220;10.122;2023-04-15T10:29:17;9.00;1.00
11944;DHT22;6031;50.220;10.122;2023-04-15T10:31:42;9.00;1.00
11944;DHT22;6031;50.220;10.122;2023-04-15T10:34:09;9.00;99.90
11944;DHT22;6031;50.220;10.122;2023-04-15T10:36:35;9.10;99.90
11944;DHT22;6031;50.220;10.122;2023-04-15T10:39:01;9.00;1.00
11944;DHT22;6031;50.220;10.122;2023-04-15T10:41:27;9.00;1.00
11944;DHT22;6031;50.220;10.122;2023-04-15T10:44:02;8.90;1.00
11944;DHT22;6031;50.220;10.122;2023-04-15T10:49:24;8.70;1.00
11944;DHT22;6031;50.220;10.122;2023-04-15T10:51:52;9.00;1.00
11944;DHT22;6031;50.220;10.122;2023-04-15T11:05:08;9.10;1.00
11944;DHT22;6031;50.220;10.122;2023-04-15T11:12:56;8.90;1.00
11944;DHT22;6031;50.220;10.122;2023-04-15T11:15:32;8.90;99.90
11944;DHT22;6031;50.220;10.122;2023-04-15T11:20:41;8.80;99.90
11944;DHT22;6031;50.220;10.122;2023-04-15T11:23:07;8.90;99.90
11944;DHT22;6031;50.220;10.122;2023-04-15T11:25:34;8.90;99.90
11944;DHT22;6031;50.220;10.122;2023-04-15T11:28:02;9.00;99.90
11944;DHT22;6031;50.220;10.122;2023-04-15T11:30:30;9.00;1.00
11944;DHT22;6031;50.220;10.122;2023-04-15T11:33:01;9.20;1.00
11944;DHT22;6031;50.220;10.122;2023-04-15T11:35:28;9.20;1.00
11944;DHT22;6031;50.220;10.122;2023-04-15T11:37:53;9.10;99.90
11944;DHT22;6031;50.220;10.122;2023-04-15T11:40:24;9.10;30.10
11944;DHT22;6031;50.220;10.122;2023-04-15T11:45:46;9.20;99.90
11944;DHT22;6031;50.220;10.122;2023-04-15T11:48:12;9.20;99.90
11944;DHT22;6031;50.220;10.122;2023-04-15T11:50:39;9.00;1.00
11944;DHT22;6031;50.220;10.122;2023-04-15T11:53:08;9.00;1.00
11944;DHT22;6031;50.220;10.122;2023-04-15T11:55:46;9.20;1.00
11944;DHT22;6031;50.220;10.122;2023-04-15T11:58:20;9.30;99.90
11944;DHT22;6031;50.220;10.122;2023-04-15T12:00:48;9.50;99.90
11944;DHT22;6031;50.220;10.122;2023-04-15T12:03:17;9.50;99.90
11944;DHT22;6031;50.220;10.122;2023-04-15T12:06:23;9.60;1.00
11944;DHT22;6031;50.220;10.122;2023-04-15T12:08:54;9.80;99.90
11944;DHT22;6031;50.220;10.122;2023-04-15T12:11:27;10.00;99.90
11944;DHT22;6031;50.220;10.122;2023-04-15T12:14:10;10.50;99.90
11944;DHT22;6031;50.220;10.122;2023-04-15T12:16:39;10.70;1.00
11944;DHT22;6031;50.220;10.122;2023-04-15T12:19:08;10.80;1.00
11944;DHT22;6031;50.220;10.122;2023-04-15T12:21:36;11.00;99.90
11944;DHT22;6031;50.220;10.122;2023-04-15T12:24:04;11.10;1.00
11944;DHT22;6031;50.220;10.122;2023-04-15T12:26:36;11.30;1.00
11944;DHT22;6031;50.220;10.122;2023-04-15T12:29:06;11.50;1.00
11944;DHT22;6031;50.220;10.122;2023-04-15T12:31:36;11.60;1.00
11944;DHT22;6031;50.220;10.122;2023-04-15T12:34:03;11.60;1.00
11944;DHT22;6031;50.220;10.122;2023-04-15T12:36:31;11.60;90.10
11944;DHT22;6031;50.220;10.122;2023-04-15T12:39:02;11.40;99.90
11944;DHT22;6031;50.220;10.122;2023-04-15T12:41:28;11.30;99.90
11944;DHT22;6031;50.220;10.122;2023-04-15T12:43:53;11.20;99.90
11944;DHT22;6031;50.220;10.122;2023-04-15T12:46:19;11.20;98.50
11944;DHT22;6031;50.220;10.122;2023-04-15T12:48:44;11.30;1.00
11944;DHT22;6031;50.220;10.122;2023-04-15T12:51:10;11.20;1.00
11944;DHT22;6031;50.220;10.122;2023-04-15T12:53:36;11.20;99.90
11944;DHT22;6031;50.220;10.122;2023-04-15T12:56:01;11.30;99.90
11944;DHT22;6031;50.220;10.122;2023-04-15T12:58:27;11.40;1.00
11944;DHT22;6031;50.220;10.122;2023-04-15T13:00:52;11.50;1.00
11944;DHT22;6031;50.220;10.122;2023-04-15T13:03:18;11.50;88.50
11944;DHT22;6031;50.220;10.122;2023-04-15T13:05:43;11.40;99.90
11944;DHT22;6031;50.220;10.122;2023-04-15T13:08:09;11.20;39.90
11944;DHT22;6031;50.220;10.122;2023-04-15T13:10:35;10.80;1.00
11944;DHT22;6031;50.220;10.122;2023-04-15T13:13:04;10.50;1.00
11944;DHT22;6031;50.220;10.122;2023-04-15T13:15:30;10.30;1.00
11944;DHT22;6031;50.220;10.122;2023-04-15T13:17:55;10.30;1.00
11944;DHT22;6031;50.220;10.122;2023-04-15T13:20:21;10.10;99.90
11944;DHT22;6031;50.220;10.122;2023-04-15T13:22:47;10.10;1.00
11944;DHT22;6031;50.220;10.122;2023-04-15T13:25:12;10.10;32.50
11944;DHT22;6031;50.220;10.122;2023-04-15T13:27:38;10.00;1.00
11944;DHT22;6031;50.220;10.122;2023-04-15T13:30:04;10.00;1.00
11944;DHT22;6031;50.220;10.122;2023-04-15T13:32:30;9.90;99.90
11944;DHT22;6031;50.220;10.122;2023-04-15T13:34:56;9.80;41.50
11944;DHT22;6031;50.220;10.122;2023-04-15T13:37:26;9.70;1.00
11944;DHT22;6031;50.220;10.122;2023-04-15T13:39:52;9.70;5.50
11944;DHT22;6031;50.220;10.122;2023-04-15T13:42:18;9.70;1.00
11944;DHT22;6031;50.220;10.122;2023-04-15T13:44:43;9.70;1.00
11944;DHT22;6031;50.220;10.122;2023-04-15T13:47:08;9.70;3.40
11944;DHT22;6031;50.220;10.122;2023-04-15T13:49:34;9.60;99.90
11944;DHT22;6031;50.220;10.122;2023-04-15T13:52:00;9.50;99.90
11944;DHT22;6031;50.220;10.122;2023-04-15T13:54:25;9.50;1.00
11944;DHT22;6031;50.220;10.122;2023-04-15T13:56:51;9.40;1.00
11944;DHT22;6031;50.220;10.122;2023-04-15T13:59:16;9.40;1.00
11944;DHT22;6031;50.220;10.122;2023-04-15T14:01:42;9.40;1.00
11944;DHT22;6031;50.220;10.122;2023-04-15T14:04:09;9.50;99.90
11944;DHT22;6031;50.220;10.122;2023-04-15T14:06:34;9.70;1.00
11944;DHT22;6031;50.220;10.122;2023-04-15T14:09:00;9.80;99.90
11944;DHT22;6031;50.220;10.122;2023-04-15T14:11:26;10.00;99.90
11944;DHT22;6031;50.220;10.122;2023-04-15T14:13:51;10.20;96.40
11944;DHT22;6031;50.220;10.122;2023-04-15T14:16:17;10.30;1.00
11944;DHT22;6031;50.220;10.122;2023-04-15T14:18:43;10.30;1.00
11944;DHT22;6031;50.220;10.122;2023-04-15T14:21:09;10.40;99.90
11944;DHT22;6031;50.220;10.122;2023-04-15T14:23:34;10.20;1.00
11944;DHT22;6031;50.220;10.122;2023-04-15T14:26:00;10.10;15.90
11944;DHT22;6031;50.220;10.122;2023-04-15T14:28:25;10.00;1.00
11944;DHT22;6031;50.220;10.122;2023-04-15T14:30:51;9.80;1.00
11944;DHT22;6031;50.220;10.122;2023-04-15T14:33:16;9.70;1.00
11944;DHT22;6031;50.220;10.122;2023-04-15T14:35:42;9.60;1.00
11944;DHT22;6031;50.220;10.122;2023-04-15T14:38:07;9.60;1.00
11944;DHT22;6031;50.220;10.122;2023-04-15T14:40:35;9.60;1.00
11944;DHT22;6031;50.220;10.122;2023-04-15T14:43:01;9.60;99.90
11944;DHT22;6031;50.220;10.122;2023-04-15T14:45:27;9.60;99.90
11944;DHT22;6031;50.220;10.122;2023-04-15T14:47:52;9.60;99.90
11944;DHT22;6031;50.220;10.122;2023-04-15T14:50:18;9.50;56.60
11944;DHT22;6031;50.220;10.122;2023-04-15T14:52:43;9.60;99.90
11944;DHT22;6031;50.220;10.122;2023-04-15T14:55:11;9.60;99.90
11944;DHT22;6031;50.220;10.122;2023-04-15T14:57:37;9.60;1.00
11944;DHT22;6031;50.220;10.122;2023-04-15T15:00:04;9.60;99.90
11944;DHT22;6031;50.220;10.122;2023-04-15T15:02:31;9.70;1.00
11944;DHT22;6031;50.220;10.122;2023-04-15T15:04:58;9.70;1.00
11944;DHT22;6031;50.220;10.122;2023-04-15T15:07:23;9.70;1.00
11944;DHT22;6031;50.220;10.122;2023-04-15T15:09:49;9.70;1.00
11944;DHT22;6031;50.220;10.122;2023-04-15T15:12:14;9.80;99.90
11944;DHT22;6031;50.220;10.122;2023-04-15T15:14:40;9.90;1.00
11944;DHT22;6031;50.220;10.122;2023-04-15T15:17:05;9.80;1.00
11944;DHT22;6031;50.220;10.122;2023-04-15T15:19:31;9.80;99.90
11944;DHT22;6031;50.220;10.122;2023-04-15T15:21:57;9.70;99.90
11944;DHT22;6031;50.220;10.122;2023-04-15T15:24:22;9.70;1.00
11944;DHT22;6031;50.220;10.122;2023-04-15T15:26:48;9.70;99.90
11944;DHT22;6031;50.220;10.122;2023-04-15T15:29:13;9.70;99.90
11944;DHT22;6031;50.220;10.122;2023-04-15T15:31:39;9.70;43.80
11944;DHT22;6031;50.220;10.122;2023-04-15T15:34:04;9.70;99.90
11944;DHT22;6031;50.220;10.122;2023-04-15T15:36:30;9.70;99.90
11944;DHT22;6031;50.220;10.122;2023-04-15T15:38:56;9.70;99.90
11944;DHT22;6031;50.220;10.122;2023-04-15T15:41:22;9.60;1.00
11944;DHT22;6031;50.220;10.122;2023-04-15T15:43:47;9.60;99.90
11944;DHT22;6031;50.220;10.122;2023-04-15T15:46:13;9.60;1.00
11944;DHT22;6031;50.220;10.122;2023-04-15T15:48:39;9.60;1.00
11944;DHT22;6031;50.220;10.122;2023-04-15T15:51:04;9.60;1.00
11944;DHT22;6031;50.220;10.122;2023-04-15T15:53:30;9.70;1.00
11944;DHT22;6031;50.220;10.122;2023-04-15T15:55:55;9.80;1.00
11944;DHT22;6031;50.220;10.122;2023-04-15T15:58:21;9.80;1.00
11944;DHT22;6031;50.220;10.122;2023-04-15T16:00:46;9.70;1.00
11944;DHT22;6031;50.220;10.122;2023-04-15T16:03:12;9.60;1.00
11944;DHT22;6031;50.220;10.122;2023-04-15T16:05:37;9.50;1.00
11944;DHT22;6031;50.220;10.122;2023-04-15T16:08:03;9.60;1.00
11944;DHT22;6031;50.220;10.122;2023-04-15T16:10:29;9.70;40.80
11944;DHT22;6031;50.220;10.122;2023-04-15T16:12:54;9.70;1.00